Time;durP1;ratioP1;P1;durP2;ratioP2;P2;SDS_P1;SDS_P2;PMS_P1;PMS_P2;Temp;Humidity;BMP_temperature;BMP_pressure;BME280_temperature;BME280_humidity;BME280_pressure;Samples;Min_cycle;Max_cycle;Signal;HPM_P1;HPM_P2
2021/07/11 00:00:17;;;;;;;17.07;10.28;;;;;;;18.75;81.75;100335.20;2638015;90;21068;-65
2021/07/11 00:04:21;;;;;;;12.63;9.83;;;;;;;18.77;81.66;100335.03;2638209;89;21508;-66
2021/07/11 00:08:24;;;;;;;14.28;10.13;;;;;;;18.75;81.03;100339.23;2637339;90;21142;-70
2021/07/11 00:12:29;;;;;;;9.68;8.50;;;;;;;18.63;80.56;100332.59;2636653;89;21037;-68
2021/07/11 00:16:34;;;;;;;14.47;9.07;;;;;;;18.56;80.54;100337.33;2636819;90;21670;-65
2021/07/11 00:20:36;;;;;;;13.53;9.38;;;;;;;18.55;80.44;100338.34;2636970;89;21061;-66
2021/07/11 00:24:40;;;;;;;12.43;9.28;;;;;;;18.44;80.33;100336.56;2638489;90;21010;-68
2021/07/11 00:28:41;;;;;;;11.20;8.45;;;;;;;18.37;80.82;100339.97;2638740;90;21065;-67
2021/07/11 00:32:44;;;;;;;15.15;9.93;;;;;;;18.36;80.84;100347.72;2638495;90;21815;-67
2021/07/11 00:36:46;;;;;;;12.20;9.78;;;;;;;18.27;81.61;100338.84;2634322;89;21095;-68
2021/07/11 00:40:48;;;;;;;15.48;11.12;;;;;;;18.17;82.47;100342.75;2634776;89;21091;-68
2021/07/11 00:44:49;;;;;;;21.40;11.55;;;;;;;18.09;83.25;100339.09;2634677;89;21098;-68
2021/07/11 00:48:51;;;;;;;14.63;9.68;;;;;;;18.10;83.49;100338.08;2634722;89;21570;-67
2021/07/11 00:52:53;;;;;;;13.00;10.20;;;;;;;18.03;83.84;100335.73;2634769;89;21047;-68
2021/07/11 00:56:55;;;;;;;17.77;11.68;;;;;;;18.02;84.10;100338.61;2634596;90;21023;-67
2021/07/11 01:01:00;;;;;;;12.85;10.85;;;;;;;17.83;84.40;100336.09;2634762;89;21086;-66
2021/07/11 01:05:07;;;;;;;12.20;10.90;;;;;;;17.70;84.85;100332.60;2635141;90;21122;-68
2021/07/11 01:09:16;;;;;;;12.93;9.73;;;;;;;17.70;85.91;100335.81;2634589;89;21595;-66
2021/07/11 01:13:21;;;;;;;17.82;10.80;;;;;;;17.75;85.60;100334.78;2618976;90;21055;-66
2021/07/11 01:17:27;;;;;;;14.45;9.03;;;;;;;17.74;84.72;100341.67;2633090;89;21114;-68
2021/07/11 01:21:33;;;;;;;13.48;9.88;;;;;;;17.65;84.47;100339.01;2632162;90;21069;-67
2021/07/11 01:25:40;;;;;;;22.98;10.15;;;;;;;17.63;84.86;100337.48;2632537;90;21047;-69
2021/07/11 01:29:42;;;;;;;18.07;9.50;;;;;;;17.49;83.39;100338.54;2657608;89;21043;-66
2021/07/11 01:33:45;;;;;;;20.32;8.83;;;;;;;17.36;83.48;100341.72;2620838;90;21031;-66
2021/07/11 01:37:48;;;;;;;18.20;10.25;;;;;;;17.26;83.86;100340.55;2658074;89;21051;-67
2021/07/11 01:41:50;;;;;;;12.33;10.60;;;;;;;17.26;84.72;100337.03;2658124;89;22220;-68
2021/07/11 01:45:54;;;;;;;14.15;12.65;;;;;;;17.34;86.02;100350.98;2658253;89;21083;-67
2021/07/11 01:49:56;;;;;;;25.27;20.82;;;;;;;17.39;86.94;100340.55;2658185;89;21115;-67
2021/07/11 01:53:58;;;;;;;22.75;18.32;;;;;;;17.43;87.46;100352.64;2658015;89;20984;-67
2021/07/11 01:58:00;;;;;;;21.57;13.70;;;;;;;17.43;87.69;100347.78;2658250;89;21035;-68
2021/07/11 02:02:01;;;;;;;21.40;11.73;;;;;;;17.47;87.90;100345.91;2658250;89;21031;-68
2021/07/11 02:06:04;;;;;;;17.35;11.93;;;;;;;17.50;87.55;100347.43;2658020;89;21069;-68
2021/07/11 02:10:10;;;;;;;16.30;11.18;;;;;;;17.44;87.80;100349.46;2658106;89;21078;-66
2021/07/11 02:14:20;;;;;;;18.67;13.70;;;;;;;17.45;87.82;100353.31;2657956;89;21071;-69
2021/07/11 02:18:26;;;;;;;23.73;14.30;;;;;;;17.42;87.44;100357.69;2657917;89;21445;-69
2021/07/11 02:22:28;;;;;;;19.35;11.70;;;;;;;17.30;86.74;100359.05;2658046;89;21054;-67
2021/07/11 02:26:31;;;;;;;12.73;9.85;;;;;;;17.01;86.91;100365.74;2658259;89;21063;-68
2021/07/11 02:30:41;;;;;;;19.12;10.65;;;;;;;16.80;87.63;100372.39;2658010;89;21044;-68
2021/07/11 02:34:45;;;;;;;18.98;10.10;;;;;;;16.57;87.92;100373.02;2639187;89;21091;-70
2021/07/11 02:39:14;;;;;;;20.10;10.08;;;;;;;16.42;89.10;100382.20;2661814;89;21047;-70
2021/07/11 02:43:16;;;;;;;23.45;10.78;;;;;;;16.48;89.62;100367.26;2656737;89;21035;-70
2021/07/11 02:47:24;;;;;;;16.32;9.28;;;;;;;16.37;89.02;100367.91;2661547;89;21065;-70
2021/07/11 02:51:27;;;;;;;32.05;10.25;;;;;;;16.32;89.18;100370.73;2661768;89;21119;-67
2021/07/11 02:55:36;;;;;;;19.37;11.78;;;;;;;16.29;89.10;100373.22;2661545;89;21515;-67
2021/07/11 02:59:40;;;;;;;21.23;10.03;;;;;;;16.30;90.07;100366.86;2661821;89;21019;-67
2021/07/11 03:03:43;;;;;;;18.00;10.23;;;;;;;16.37;89.36;100365.70;2662111;89;21269;-67
2021/07/11 03:07:45;;;;;;;14.47;10.53;;;;;;;16.50;89.04;100367.94;2663794;88;21587;-68
2021/07/11 03:11:48;;;;;;;15.03;10.20;;;;;;;16.49;88.61;100371.14;2627100;90;21030;-67
2021/07/11 03:15:50;;;;;;;19.00;10.38;;;;;;;16.58;88.28;100370.66;2626809;90;21077;-70
2021/07/11 03:19:54;;;;;;;13.43;8.50;;;;;;;16.63;87.41;100363.47;2626939;90;21113;-69
2021/07/11 03:23:57;;;;;;;21.25;10.05;;;;;;;16.67;88.09;100371.53;2626740;90;22286;-68
2021/07/11 03:28:04;;;;;;;16.77;8.40;;;;;;;16.87;88.45;100372.06;2627038;90;21021;-68
2021/07/11 03:32:05;;;;;;;16.82;9.08;;;;;;;16.93;87.09;100368.73;2626438;90;21037;-68
2021/07/11 03:36:09;;;;;;;16.97;9.60;;;;;;;16.97;86.99;100372.77;2620854;90;21026;-68
2021/07/11 03:40:20;;;;;;;14.68;11.18;;;;;;;17.04;87.09;100379.70;2660024;89;21059;-69
2021/07/11 03:44:29;;;;;;;13.70;12.25;;;;;;;17.00;88.87;100391.79;2660010;89;21131;-68
2021/07/11 03:48:52;;;;;;;16.77;11.10;;;;;;;17.03;89.54;100389.25;2660023;89;21370;-69
2021/07/11 03:53:02;;;;;;;14.47;10.38;;;;;;;17.15;90.34;100379.02;2660028;89;21641;-69
2021/07/11 03:57:06;;;;;;;13.45;9.70;;;;;;;17.31;90.41;100381.72;2660041;89;21727;-69
2021/07/11 04:01:08;;;;;;;15.38;10.38;;;;;;;17.36;89.41;100381.22;2659882;89;21072;-70
2021/07/11 04:05:12;;;;;;;15.70;10.70;;;;;;;17.31;89.78;100382.23;2660176;89;21040;-68
2021/07/11 04:09:21;;;;;;;22.10;11.55;;;;;;;17.37;90.50;100388.28;2660140;89;21032;-68
2021/07/11 04:13:23;;;;;;;13.13;11.75;;;;;;;17.69;92.48;100385.24;2660065;89;21075;-66
2021/07/11 04:17:27;;;;;;;17.40;11.93;;;;;;;18.29;92.04;100384.45;2660050;89;21645;-68
2021/07/11 04:21:31;;;;;;;17.82;12.70;;;;;;;18.97;92.18;100376.66;2659804;89;21100;-68
2021/07/11 04:25:41;;;;;;;15.03;11.20;;;;;;;19.70;90.09;100376.78;2650164;89;21119;-68
2021/07/11 04:29:43;;;;;;;17.87;11.60;;;;;;;20.72;89.72;100388.44;2650577;88;21045;-66
2021/07/11 04:33:49;;;;;;;12.60;10.30;;;;;;;21.75;83.27;100388.73;2650885;89;21027;-69
2021/07/11 04:37:51;;;;;;;18.82;10.50;;;;;;;22.57;79.18;100389.52;2654257;88;21186;-64
2021/07/11 04:41:53;;;;;;;15.80;10.23;;;;;;;23.21;77.14;100390.07;2660639;89;21119;-67
2021/07/11 04:45:55;;;;;;;14.07;9.88;;;;;;;24.10;74.96;100381.18;2659367;89;21047;-64
2021/07/11 04:49:56;;;;;;;11.12;8.40;;;;;;;24.89;71.09;100380.77;2661993;89;21071;-66
2021/07/11 04:53:59;;;;;;;12.68;8.65;;;;;;;25.34;67.21;100379.30;2662293;89;21032;-65
2021/07/11 04:58:00;;;;;;;10.68;8.28;;;;;;;25.78;67.16;100377.15;2662275;89;21126;-66
2021/07/11 05:02:02;;;;;;;23.30;9.80;;;;;;;26.34;63.74;100380.77;2662596;89;21126;-66
2021/07/11 05:06:05;;;;;;;10.93;7.65;;;;;;;26.52;64.16;100377.69;2661528;89;21078;-66
2021/07/11 05:10:09;;;;;;;13.30;7.30;;;;;;;27.07;62.71;100374.02;2660773;89;21073;-68
2021/07/11 05:14:11;;;;;;;10.15;7.95;;;;;;;27.37;61.37;100370.38;2660730;89;21645;-65
2021/07/11 05:18:13;;;;;;;11.50;7.83;;;;;;;27.75;60.28;100365.56;2660701;89;21061;-67
2021/07/11 05:22:15;;;;;;;10.28;7.30;;;;;;;28.00;59.97;100364.45;2661457;89;21053;-64
2021/07/11 05:26:16;;;;;;;13.85;7.78;;;;;;;28.23;60.12;100365.50;2662252;89;21574;-64
2021/07/11 05:30:20;;;;;;;10.45;6.70;;;;;;;28.13;58.97;100356.52;2661343;89;21013;-65
2021/07/11 05:34:22;;;;;;;7.72;5.78;;;;;;;28.19;58.32;100356.13;2662578;89;21028;-64
2021/07/11 05:38:25;;;;;;;13.13;6.47;;;;;;;28.08;58.30;100354.50;2665617;89;30155;-65
2021/07/11 05:42:27;;;;;;;10.63;6.28;;;;;;;28.08;58.58;100358.60;2666276;89;21076;-66
2021/07/11 05:46:29;;;;;;;6.72;4.95;;;;;;;28.05;58.55;100359.09;2667596;89;21003;-64
2021/07/11 05:50:30;;;;;;;10.10;5.80;;;;;;;27.99;59.10;100354.59;2665724;89;21029;-64
2021/07/11 05:54:32;;;;;;;6.70;5.22;;;;;;;27.85;58.63;100350.45;2665741;89;21075;-65
2021/07/11 05:58:34;;;;;;;8.80;5.62;;;;;;;27.87;58.87;100351.88;2665927;89;21096;-64
2021/07/11 06:02:35;;;;;;;5.53;5.03;;;;;;;27.93;58.53;100343.27;2666488;89;21692;-64
2021/07/11 06:06:37;;;;;;;4.97;4.08;;;;;;;27.96;57.97;100343.30;2666725;89;21051;-65
2021/07/11 06:10:39;;;;;;;4.97;3.60;;;;;;;27.85;57.43;100339.00;2668224;89;21036;-67
2021/07/11 06:14:41;;;;;;;4.58;3.35;;;;;;;27.72;57.13;100326.42;2665800;89;21121;-63
2021/07/11 06:18:42;;;;;;;4.00;3.70;;;;;;;27.58;57.52;100324.45;2666213;89;21078;-64
2021/07/11 06:22:44;;;;;;;5.08;3.85;;;;;;;27.60;57.76;100328.33;2666393;89;21036;-64
2021/07/11 06:26:48;;;;;;;4.62;3.90;;;;;;;27.56;57.79;100321.68;2666145;89;21021;-63
2021/07/11 06:30:53;;;;;;;4.03;2.40;;;;;;;27.55;57.61;100320.02;2666170;89;21053;-63
2021/07/11 06:34:55;;;;;;;4.08;3.17;;;;;;;27.57;57.33;100323.34;2666882;89;21067;-63
2021/07/11 06:38:59;;;;;;;3.83;2.98;;;;;;;27.27;56.22;100331.92;2667494;89;21334;-66
2021/07/11 06:43:00;;;;;;;3.17;2.67;;;;;;;27.05;56.39;100330.27;2667598;89;21055;-65
2021/07/11 06:47:04;;;;;;;7.10;2.75;;;;;;;26.94;57.45;100329.19;2667641;89;21051;-65
2021/07/11 06:51:08;;;;;;;6.60;2.40;;;;;;;26.78;56.53;100324.66;2666726;88;21032;-63
2021/07/11 06:55:11;;;;;;;4.58;3.12;;;;;;;26.61;57.18;100335.41;2665823;89;21019;-63
2021/07/11 06:59:13;;;;;;;3.25;2.98;;;;;;;26.64;58.67;100336.86;2666812;89;21091;-63
2021/07/11 07:03:15;;;;;;;7.20;3.52;;;;;;;26.78;58.02;100340.22;2666443;89;21053;-66
2021/07/11 07:07:18;;;;;;;3.17;2.87;;;;;;;27.01;58.42;100337.27;2666444;89;21045;-64
2021/07/11 07:11:21;;;;;;;3.45;3.12;;;;;;;27.10;56.74;100333.13;2666590;89;21072;-63
2021/07/11 07:15:24;;;;;;;2.65;2.35;;;;;;;27.09;56.46;100325.48;2667428;88;21136;-63
2021/07/11 07:19:26;;;;;;;4.28;3.37;;;;;;;27.11;55.94;100333.42;2666433;89;21119;-65
2021/07/11 07:23:27;;;;;;;3.60;2.60;;;;;;;27.11;56.45;100327.95;2666489;89;21098;-64
2021/07/11 07:27:29;;;;;;;2.80;2.47;;;;;;;27.07;55.65;100321.31;2666604;89;21074;-65
2021/07/11 07:31:31;;;;;;;3.02;2.37;;;;;;;27.07;56.18;100329.50;2665864;89;21060;-64
2021/07/11 07:35:33;;;;;;;5.70;2.60;;;;;;;27.16;56.07;100315.83;2665893;89;21585;-66
2021/07/11 07:39:37;;;;;;;5.25;2.85;;;;;;;27.19;55.34;100319.44;2660480;88;21019;-65
2021/07/11 07:43:42;;;;;;;7.12;3.85;;;;;;;27.26;55.55;100317.12;2666945;89;21058;-65
2021/07/11 07:47:43;;;;;;;4.45;2.77;;;;;;;27.35;56.06;100325.28;2638333;90;21055;-63
2021/07/11 07:51:45;;;;;;;2.92;2.62;;;;;;;27.45;55.05;100317.30;2637791;89;21079;-67
2021/07/11 07:55:53;;;;;;;5.80;3.17;;;;;;;27.35;54.52;100317.09;2667773;89;21067;-65
2021/07/11 07:59:55;;;;;;;4.62;3.33;;;;;;;27.34;54.94;100320.88;2626729;90;21049;-69
2021/07/11 08:03:57;;;;;;;5.55;3.08;;;;;;;27.35;55.33;100335.65;2665673;89;21019;-65
2021/07/11 08:07:59;;;;;;;7.65;3.20;;;;;;;27.46;54.76;100316.23;2666245;89;21072;-67
2021/07/11 08:12:01;;;;;;;2.75;2.20;;;;;;;27.56;54.95;100320.31;2666650;89;21539;-65
2021/07/11 08:16:04;;;;;;;2.47;2.00;;;;;;;27.56;53.94;100317.03;2647586;89;21140;-67
2021/07/11 08:20:08;;;;;;;3.17;2.83;;;;;;;27.70;53.73;100316.24;2666149;89;21084;-65
2021/07/11 08:24:10;;;;;;;4.92;2.75;;;;;;;27.71;54.07;100313.84;2666882;89;21069;-64
2021/07/11 08:28:12;;;;;;;3.00;2.77;;;;;;;27.70;53.59;100304.50;2668169;89;21023;-65
2021/07/11 08:32:13;;;;;;;2.50;2.30;;;;;;;27.73;53.76;100302.65;2667457;89;21041;-65
2021/07/11 08:36:15;;;;;;;2.75;1.90;;;;;;;27.86;53.75;100313.84;2667554;89;21056;-65
2021/07/11 08:40:18;;;;;;;2.15;1.95;;;;;;;27.86;52.88;100317.95;2663498;89;21051;-68
2021/07/11 08:44:20;;;;;;;2.00;1.77;;;;;;;27.86;53.52;100325.63;2664232;89;21075;-61
2021/07/11 08:48:21;;;;;;;8.08;3.25;;;;;;;27.89;53.20;100322.41;2655684;88;21070;-64
2021/07/11 08:52:23;;;;;;;4.92;2.58;;;;;;;27.80;52.38;100317.84;2656470;89;21031;-66
2021/07/11 08:56:28;;;;;;;2.70;2.45;;;;;;;27.74;52.68;100316.09;2656916;89;21031;-66
2021/07/11 09:00:36;;;;;;;2.25;2.05;;;;;;;27.79;52.56;100320.28;2653904;89;21047;-65
2021/07/11 09:04:45;;;;;;;2.90;2.60;;;;;;;27.83;52.85;100317.06;2657876;89;21569;-63
2021/07/11 09:08:47;;;;;;;3.35;2.02;;;;;;;27.84;53.51;100322.83;2663932;89;21055;-63
2021/07/11 09:12:54;;;;;;;2.25;2.05;;;;;;;27.97;53.18;100318.47;2658443;89;21035;-66
2021/07/11 09:17:00;;;;;;;4.25;2.27;;;;;;;27.92;53.36;100326.58;2662794;88;21177;-65
2021/07/11 09:21:13;;;;;;;1.92;1.80;;;;;;;27.87;52.71;100327.28;2657985;89;21123;-66
2021/07/11 09:25:17;;;;;;;2.30;2.10;;;;;;;27.86;53.56;100322.05;2665071;89;21043;-65
2021/07/11 09:29:31;;;;;;;5.17;2.33;;;;;;;27.90;53.35;100318.60;2662928;89;21593;-64
2021/07/11 09:33:39;;;;;;;2.05;1.95;;;;;;;28.01;53.15;100326.48;2660938;88;21054;-64
2021/07/11 09:37:45;;;;;;;3.15;2.10;;;;;;;28.00;52.46;100324.81;2672309;88;21059;-67
2021/07/11 09:41:47;;;;;;;3.15;2.08;;;;;;;28.09;52.52;100326.64;2668489;88;21048;-64
2021/07/11 09:45:50;;;;;;;2.70;2.15;;;;;;;28.22;52.30;100320.94;2655044;88;21651;-66
2021/07/11 09:50:21;;;;;;;3.33;2.08;;;;;;;28.38;53.38;100327.23;2661757;88;21079;-67
2021/07/11 09:54:25;;;;;;;2.20;2.05;;;;;;;28.68;52.43;100320.66;2661954;89;21044;-63
2021/07/11 09:58:32;;;;;;;2.43;2.13;;;;;;;28.89;51.31;100317.27;2658416;89;21063;-67
2021/07/11 10:02:31;;;;;;;3.62;2.62;;;;;;;28.81;51.89;100314.91;2662166;89;21085;-64
2021/07/11 10:06:35;;;;;;;2.20;2.00;;;;;;;28.81;50.81;100301.78;2661919;88;21092;-67
2021/07/11 10:10:40;;;;;;;2.85;2.20;;;;;;;28.91;51.06;100305.52;2639846;89;21057;-64
2021/07/11 10:14:46;;;;;;;2.65;2.02;;;;;;;28.98;52.57;100303.97;2662562;89;21070;-64
2021/07/11 10:18:50;;;;;;;2.75;2.10;;;;;;;29.09;52.48;100302.25;2663042;89;21031;-64
2021/07/11 10:22:52;;;;;;;2.90;1.98;;;;;;;28.99;50.95;100295.23;2662083;89;21665;-68
2021/07/11 10:26:54;;;;;;;3.20;2.08;;;;;;;29.04;52.75;100289.83;2662758;89;21067;-64
2021/07/11 10:30:57;;;;;;;2.35;2.15;;;;;;;29.15;51.46;100299.88;2663139;89;21922;-65
2021/07/11 10:35:17;;;;;;;1.95;1.85;;;;;;;28.94;52.14;100295.97;2662592;89;21020;-64
2021/07/11 10:39:19;;;;;;;3.15;2.85;;;;;;;28.95;51.87;100288.59;2668571;89;21096;-65
2021/07/11 10:43:21;;;;;;;2.25;2.02;;;;;;;29.24;52.83;100300.28;2669733;89;21015;-68
2021/07/11 10:47:23;;;;;;;2.47;2.27;;;;;;;29.46;51.92;100290.76;2669830;89;21016;-64
2021/07/11 10:51:25;;;;;;;9.93;4.15;;;;;;;29.51;51.46;100291.38;2669149;89;21121;-64
2021/07/11 10:55:42;;;;;;;5.12;1.87;;;;;;;29.48;51.44;100281.78;2669294;89;21079;-65
2021/07/11 10:59:47;;;;;;;3.25;2.67;;;;;;;29.55;53.61;100282.94;2668185;89;21506;-60
2021/07/11 11:03:52;;;;;;;5.00;3.83;;;;;;;29.63;51.80;100292.64;2667254;89;21088;-61
2021/07/11 11:08:14;;;;;;;2.22;2.12;;;;;;;29.58;52.06;100287.94;2668299;89;21099;-61
2021/07/11 11:12:30;;;;;;;3.70;2.12;;;;;;;29.66;51.94;100277.05;2668237;89;21021;-62
2021/07/11 11:16:45;;;;;;;2.02;1.82;;;;;;;29.57;51.10;100275.84;2667311;88;21601;-62
2021/07/11 11:20:56;;;;;;;2.62;2.40;;;;;;;29.69;52.17;100277.09;2665817;89;21593;-61
2021/07/11 11:24:59;;;;;;;2.55;2.30;;;;;;;29.55;51.84;100269.23;2668422;89;21094;-61
2021/07/11 11:29:02;;;;;;;2.67;2.42;;;;;;;29.63;52.18;100280.30;2658353;89;21064;-62
2021/07/11 11:33:06;;;;;;;2.95;2.75;;;;;;;29.39;52.30;100264.06;2656116;89;21047;-60
2021/07/11 11:37:07;;;;;;;2.37;2.20;;;;;;;29.39;52.30;100264.06;2654979;89;21079;-61
2021/07/11 11:41:14;;;;;;;3.42;2.33;;;;;;;29.22;52.46;100281.35;2651824;89;21039;-62
2021/07/11 11:45:19;;;;;;;3.27;2.40;;;;;;;29.13;51.92;100284.23;2651828;89;21045;-61
2021/07/11 11:49:24;;;;;;;1.80;1.70;;;;;;;29.26;52.26;100287.69;2651841;89;21051;-61
2021/07/11 11:53:26;;;;;;;5.05;2.30;;;;;;;29.22;52.59;100274.50;2651569;89;21015;-62
2021/07/11 11:57:32;;;;;;;6.40;2.35;;;;;;;29.33;52.65;100274.67;2651630;89;21051;-62
2021/07/11 12:01:36;;;;;;;1.90;1.77;;;;;;;29.25;52.31;100273.19;2651884;89;21059;-62
2021/07/11 12:05:40;;;;;;;2.90;2.57;;;;;;;29.24;52.55;100266.58;2598803;91;21036;-61
2021/07/11 12:09:42;;;;;;;4.07;2.93;;;;;;;29.35;52.74;100276.06;2651715;89;21109;-63
2021/07/11 12:13:45;;;;;;;2.47;2.02;;;;;;;29.46;51.88;100257.07;2650951;89;21421;-62
2021/07/11 12:17:47;;;;;;;2.75;2.40;;;;;;;29.60;51.23;100253.41;2651863;89;21015;-62
2021/07/11 12:21:50;;;;;;;6.87;3.10;;;;;;;29.77;52.71;100251.45;2651659;89;21067;-62
2021/07/11 12:26:04;;;;;;;2.52;2.33;;;;;;;29.99;53.15;100251.16;2628836;89;21060;-62
2021/07/11 12:30:14;;;;;;;4.35;2.40;;;;;;;30.10;51.16;100242.53;2633017;90;21025;-61
2021/07/11 12:34:18;;;;;;;5.12;2.33;;;;;;;29.90;51.42;100235.70;2650293;89;21092;-61
2021/07/11 12:38:36;;;;;;;2.40;2.20;;;;;;;29.90;51.42;100235.70;2649376;90;21001;-63
2021/07/11 12:42:38;;;;;;;2.08;1.98;;;;;;;29.84;51.45;100224.38;2647929;89;21377;-63
2021/07/11 12:46:46;;;;;;;2.37;2.05;;;;;;;29.90;51.57;100220.63;2647603;89;21065;-62
2021/07/11 12:50:53;;;;;;;2.42;2.15;;;;;;;29.87;51.89;100217.00;2647563;90;21036;-61
2021/07/11 12:55:16;;;;;;;2.33;2.12;;;;;;;29.87;51.89;100217.00;2647476;89;21068;-63
2021/07/11 12:59:39;;;;;;;3.95;2.40;;;;;;;29.76;51.51;100224.28;2628354;88;21113;-63
2021/07/11 13:03:56;;;;;;;3.17;1.98;;;;;;;29.59;51.41;100186.84;2626423;90;21078;-63
2021/07/11 13:08:11;;;;;;;3.47;3.00;;;;;;;29.44;51.78;100179.79;2626194;90;21029;-62
2021/07/11 13:12:12;;;;;;;3.47;2.37;;;;;;;29.49;52.91;100205.34;2626565;90;21531;-63
2021/07/11 13:16:19;;;;;;;2.85;2.65;;;;;;;29.70;53.07;100219.83;2625941;89;21093;-63
2021/07/11 13:20:22;;;;;;;4.78;3.02;;;;;;;29.70;53.07;100219.83;2626454;90;21010;-61
2021/07/11 13:24:23;;;;;;;4.60;1.90;;;;;;;29.61;52.79;100221.66;2626346;90;21455;-61
2021/07/11 13:28:28;;;;;;;3.15;2.20;;;;;;;29.41;52.96;100220.84;2640672;89;31166;-63
2021/07/11 13:32:29;;;;;;;2.67;2.30;;;;;;;29.41;52.96;100220.84;2655046;88;21083;-63
2021/07/11 13:36:30;;;;;;;2.70;2.00;;;;;;;29.65;52.94;100212.36;2681957;88;21103;-62
2021/07/11 13:40:33;;;;;;;2.90;2.20;;;;;;;29.77;52.10;100209.48;2670862;88;21045;-61
2021/07/11 13:44:36;;;;;;;3.98;2.12;;;;;;;29.69;51.84;100203.94;2670176;89;21072;-62
2021/07/11 13:48:37;;;;;;;1.50;1.40;;;;;;;29.64;52.28;100196.48;2670553;88;21045;-62
2021/07/11 13:52:39;;;;;;;3.35;2.67;;;;;;;29.73;51.84;100196.86;2670324;89;21033;-63
2021/07/11 13:56:43;;;;;;;2.62;1.82;;;;;;;29.86;51.77;100194.78;2658437;89;21098;-62
2021/07/11 14:00:46;;;;;;;4.58;2.55;;;;;;;29.99;51.99;100179.87;2623604;90;21028;-60
2021/07/11 14:04:54;;;;;;;2.10;1.98;;;;;;;30.02;51.19;100184.30;2623614;90;21027;-61
2021/07/11 14:08:55;;;;;;;2.02;1.92;;;;;;;29.97;51.94;100185.59;2623347;90;21012;-61
2021/07/11 14:12:59;;;;;;;2.70;2.50;;;;;;;30.11;51.19;100181.11;2623607;90;21166;-60
2021/07/11 14:17:41;;;;;;;5.93;1.97;;;;;;;30.34;51.03;100173.92;2624499;90;21047;-61
2021/07/11 14:21:42;;;;;;;2.60;2.40;;;;;;;30.54;51.34;100161.45;2625015;90;21095;-62
2021/07/11 14:26:21;;;;;;;2.37;2.17;;;;;;;30.78;51.43;100147.38;2624945;90;21001;-62
2021/07/11 14:30:59;;;;;;;2.17;1.98;;;;;;;30.76;49.76;100162.75;2650748;90;21632;-61
2021/07/11 14:35:35;;;;;;;6.78;2.87;;;;;;;30.52;50.22;100177.36;2651159;90;21183;-60
2021/07/11 14:39:38;;;;;;;2.37;2.17;;;;;;;30.20;51.53;100185.03;2650894;89;21043;-60
2021/07/11 14:48:22;;;;;;;2.37;2.17;;;;;;;29.49;53.12;100189.44;2650856;90;21036;-64
2021/07/11 14:52:24;;;;;;;2.83;2.62;;;;;;;29.38;53.23;100182.97;2651109;90;21035;-64
2021/07/11 14:57:03;;;;;;;2.75;2.55;;;;;;;29.30;55.26;100184.23;2646195;90;21096;-64
2021/07/11 15:01:05;;;;;;;3.20;2.95;;;;;;;29.17;55.58;100179.12;2624836;90;20993;-64
2021/07/11 15:05:44;;;;;;;4.28;2.65;;;;;;;29.17;55.58;100179.12;2624828;90;21020;-63
2021/07/11 15:09:46;;;;;;;2.65;2.20;;;;;;;29.05;55.95;100171.02;2624776;90;21051;-62
2021/07/11 15:13:49;;;;;;;3.17;2.45;;;;;;;28.91;57.11;100170.03;2624962;89;21052;-61
2021/07/11 15:17:55;;;;;;;8.15;3.58;;;;;;;28.78;57.54;100164.86;2623954;90;21079;-63
2021/07/11 15:21:57;;;;;;;3.27;2.98;;;;;;;28.72;58.67;100159.03;2623859;90;21086;-61
2021/07/11 15:25:59;;;;;;;8.23;3.20;;;;;;;28.63;59.25;100154.52;2623919;90;21055;-62
2021/07/11 15:30:00;;;;;;;3.25;3.00;;;;;;;28.56;59.27;100153.84;2596102;91;22320;-63
2021/07/11 15:34:04;;;;;;;3.45;3.15;;;;;;;28.46;58.71;100155.34;2596407;91;21064;-62
2021/07/11 15:38:06;;;;;;;33.30;25.90;;;;;;;28.35;60.11;100144.78;2596142;90;21106;-63
2021/07/11 15:42:08;;;;;;;33.00;21.68;;;;;;;28.26;60.60;100144.06;2596274;91;21075;-63
2021/07/11 15:46:11;;;;;;;4.05;3.65;;;;;;;28.21;60.82;100131.13;2595769;91;21055;-63
2021/07/11 15:50:13;;;;;;;4.10;3.80;;;;;;;28.17;60.60;100136.80;2595393;91;21135;-63
2021/07/11 15:54:17;;;;;;;6.47;4.80;;;;;;;28.20;61.08;100131.69;2595664;90;21094;-64
2021/07/11 15:58:19;;;;;;;6.78;3.65;;;;;;;28.21;61.30;100121.56;2595759;91;21023;-64
2021/07/11 16:02:21;;;;;;;5.35;4.70;;;;;;;28.28;61.04;100112.64;2595598;91;21035;-62
2021/07/11 16:06:27;;;;;;;4.15;3.75;;;;;;;28.29;60.87;100114.30;2595954;91;21103;-63
2021/07/11 16:10:29;;;;;;;3.67;3.47;;;;;;;28.26;60.16;100103.86;2595727;91;21096;-63
2021/07/11 16:14:30;;;;;;;8.60;7.33;;;;;;;28.22;60.30;100099.97;2594931;90;21106;-64
2021/07/11 16:18:32;;;;;;;4.20;3.80;;;;;;;28.34;60.11;100098.52;2595657;91;21059;-62
2021/07/11 16:22:36;;;;;;;3.25;2.95;;;;;;;28.51;59.59;100098.53;2595804;91;21067;-63
2021/07/11 16:26:38;;;;;;;4.15;3.85;;;;;;;28.60;59.69;100097.56;2596072;90;21126;-63
2021/07/11 16:30:42;;;;;;;4.15;3.35;;;;;;;28.60;59.46;100095.64;2595884;91;21058;-63
2021/07/11 16:34:45;;;;;;;6.40;4.27;;;;;;;28.53;59.40;100093.63;2595338;91;21107;-62
2021/07/11 16:38:47;;;;;;;3.47;3.17;;;;;;;28.44;59.75;100091.86;2595658;90;21090;-63
2021/07/11 16:42:49;;;;;;;3.70;3.27;;;;;;;28.39;60.47;100089.58;2595699;91;21031;-62
2021/07/11 16:46:54;;;;;;;4.53;3.52;;;;;;;28.32;60.67;100089.22;2595757;91;21048;-63
2021/07/11 16:50:56;;;;;;;3.58;3.27;;;;;;;28.27;60.39;100081.46;2595774;90;21083;-63
2021/07/11 16:54:59;;;;;;;4.22;3.00;;;;;;;28.19;60.56;100073.95;2595728;90;21059;-62
2021/07/11 16:59:01;;;;;;;5.95;3.75;;;;;;;28.16;61.27;100073.64;2595572;91;21059;-63
2021/07/11 17:03:03;;;;;;;4.55;3.67;;;;;;;28.15;61.41;100071.95;2595538;91;21071;-61
2021/07/11 17:07:07;;;;;;;3.42;3.12;;;;;;;28.16;61.66;100079.91;2611744;89;21115;-63
2021/07/11 17:11:08;;;;;;;5.67;4.87;;;;;;;28.22;61.99;100080.31;2582766;91;21004;-62
2021/07/11 17:15:14;;;;;;;5.10;3.00;;;;;;;28.25;61.75;100079.52;2622548;90;21032;-61
2021/07/11 17:19:15;;;;;;;4.25;3.80;;;;;;;28.26;61.73;100083.35;2612126;91;21047;-63
2021/07/11 17:23:17;;;;;;;4.20;3.27;;;;;;;28.24;62.00;100077.31;2582461;92;21095;-62
2021/07/11 17:27:20;;;;;;;3.98;3.67;;;;;;;28.22;62.38;100083.56;2632633;90;21051;-62
2021/07/11 17:31:22;;;;;;;3.80;3.45;;;;;;;28.22;62.10;100084.41;2625395;90;21153;-61
2021/07/11 17:35:29;;;;;;;5.30;3.77;;;;;;;28.18;61.63;100094.16;2625088;90;21126;-62
2021/07/11 17:39:32;;;;;;;4.78;3.92;;;;;;;28.07;61.25;100091.77;2603011;90;21032;-62
2021/07/11 17:43:35;;;;;;;5.03;3.27;;;;;;;27.99;61.53;100089.45;2625280;90;21059;-64
2021/07/11 17:47:37;;;;;;;4.12;3.80;;;;;;;27.91;62.02;100092.61;2625347;90;21134;-60
2021/07/11 17:51:39;;;;;;;4.67;4.28;;;;;;;27.82;62.34;100094.06;2625767;90;21019;-63
2021/07/11 17:55:42;;;;;;;5.03;4.50;;;;;;;27.72;62.96;100097.44;2625122;90;21116;-62
2021/07/11 17:59:43;;;;;;;5.28;4.78;;;;;;;27.64;63.42;100104.12;2627245;90;21035;-61
2021/07/11 18:03:48;;;;;;;4.00;3.75;;;;;;;27.56;63.54;100109.98;2627135;90;21044;-63
2021/07/11 18:07:51;;;;;;;6.42;5.45;;;;;;;27.46;63.90;100114.68;2627247;90;21071;-62
2021/07/11 18:11:54;;;;;;;6.40;5.78;;;;;;;27.39;64.04;100109.36;2626989;90;21098;-62
2021/07/11 18:15:58;;;;;;;6.58;5.58;;;;;;;27.31;64.51;100112.45;2626058;89;21085;-61
2021/07/11 18:20:00;;;;;;;6.42;5.03;;;;;;;27.23;64.89;100118.59;2626879;90;21152;-62
2021/07/11 18:24:04;;;;;;;5.95;5.28;;;;;;;27.14;65.15;100109.13;2626938;90;21070;-62
2021/07/11 18:28:06;;;;;;;5.93;5.33;;;;;;;27.02;65.65;100112.41;2621962;89;21063;-62
2021/07/11 18:32:10;;;;;;;6.03;5.30;;;;;;;26.91;65.64;100118.98;2618362;91;21352;-62
2021/07/11 18:36:12;;;;;;;7.33;6.28;;;;;;;26.81;65.49;100113.28;2618542;91;21083;-63
2021/07/11 18:40:16;;;;;;;9.30;6.62;;;;;;;26.72;65.74;100113.34;2585545;91;21039;-61
2021/07/11 18:44:21;;;;;;;6.67;6.17;;;;;;;26.62;65.93;100113.41;2587563;92;21155;-62
2021/07/11 18:48:27;;;;;;;7.77;6.93;;;;;;;26.55;66.88;100116.80;2638879;90;21118;-61
2021/07/11 18:52:33;;;;;;;6.05;5.22;;;;;;;26.41;68.05;100120.81;2733736;85;21620;-62
2021/07/11 18:56:35;;;;;;;12.10;8.23;;;;;;;26.20;71.33;100130.66;2707374;86;21109;-61